sensor_id;sensor_type;location;lat;lon;timestamp;pressure;altitude;pressure_sealevel;temperature;humidity
55757;BME280;41676;44.610;44.078;2023-07-28T00:04:40;99126.59;;;22.45;83.70
55757;BME280;41676;44.610;44.078;2023-07-28T00:09:40;99095.50;;;22.37;83.38
55757;BME280;41676;44.610;44.078;2023-07-28T00:14:41;99081.47;;;22.30;83.33
55757;BME280;41676;44.610;44.078;2023-07-28T00:19:42;99061.19;;;22.22;83.47
55757;BME280;41676;44.610;44.078;2023-07-28T00:24:43;99042.81;;;22.14;83.64
55757;BME280;41676;44.610;44.078;2023-07-28T00:29:44;99119.25;;;22.55;84.09
55757;BME280;41676;44.610;44.078;2023-07-28T00:34:46;99098.69;;;22.49;84.17
55757;BME280;41676;44.610;44.078;2023-07-28T00:39:47;99110.78;;;22.67;83.69
55757;BME280;41676;44.610;44.078;2023-07-28T00:44:48;99096.16;;;22.73;83.42
55757;BME280;41676;44.610;44.078;2023-07-28T00:49:48;99073.97;;;22.71;83.26
55757;BME280;41676;44.610;44.078;2023-07-28T00:54:49;99031.28;;;22.58;83.11
55757;BME280;41676;44.610;44.078;2023-07-28T00:59:50;99051.56;;;22.61;83.24
55757;BME280;41676;44.610;44.078;2023-07-28T01:04:51;99048.06;;;22.55;83.37
55757;BME280;41676;44.610;44.078;2023-07-28T01:14:59;99074.56;;;22.63;84.14
55757;BME280;41676;44.610;44.078;2023-07-28T01:20:00;99065.09;;;22.61;84.57
55757;BME280;41676;44.610;44.078;2023-07-28T01:30:11;99036.53;;;22.34;84.94
55757;BME280;41676;44.610;44.078;2023-07-28T01:35:13;99092.63;;;22.78;84.79
55757;BME280;41676;44.610;44.078;2023-07-28T01:40:14;99087.44;;;22.87;84.47
55757;BME280;41676;44.610;44.078;2023-07-28T01:45:14;99096.59;;;23.01;84.65
55757;BME280;41676;44.610;44.078;2023-07-28T01:50:15;99075.25;;;22.89;84.49
55757;BME280;41676;44.610;44.078;2023-07-28T01:55:16;99095.41;;;23.12;84.16
55757;BME280;41676;44.610;44.078;2023-07-28T02:00:17;99006.41;;;22.56;83.95
55757;BME280;41676;44.610;44.078;2023-07-28T02:05:18;99072.47;;;22.99;84.35
55757;BME280;41676;44.610;44.078;2023-07-28T02:10:22;99068.97;;;22.99;85.04
55757;BME280;41676;44.610;44.078;2023-07-28T02:15:23;99065.13;;;23.05;84.42
55757;BME280;41676;44.610;44.078;2023-07-28T02:20:24;99040.22;;;23.03;84.74
55757;BME280;41676;44.610;44.078;2023-07-28T02:25:25;99046.41;;;23.09;84.65
55757;BME280;41676;44.610;44.078;2023-07-28T02:30:26;99035.31;;;23.10;84.64
55757;BME280;41676;44.610;44.078;2023-07-28T02:35:27;99024.25;;;23.07;84.97
55757;BME280;41676;44.610;44.078;2023-07-28T02:40:27;99008.84;;;22.97;85.28
55757;BME280;41676;44.610;44.078;2023-07-28T02:45:28;99025.81;;;23.13;85.77
55757;BME280;41676;44.610;44.078;2023-07-28T02:50:29;98966.19;;;22.78;86.42
55757;BME280;41676;44.610;44.078;2023-07-28T02:55:29;98958.06;;;22.78;86.92
55757;BME280;41676;44.610;44.078;2023-07-28T03:00:30;99026.84;;;23.22;87.65
55757;BME280;41676;44.610;44.078;2023-07-28T03:05:32;99028.16;;;23.24;88.18
55757;BME280;41676;44.610;44.078;2023-07-28T03:10:32;99036.19;;;23.35;88.25
55757;BME280;41676;44.610;44.078;2023-07-28T03:15:33;99042.06;;;23.47;88.38
55757;BME280;41676;44.610;44.078;2023-07-28T03:20:34;99068.59;;;23.50;88.67
55757;BME280;41676;44.610;44.078;2023-07-28T03:25:35;99054.00;;;23.46;89.03
55757;BME280;41676;44.610;44.078;2023-07-28T03:30:35;99057.59;;;23.36;89.66
55757;BME280;41676;44.610;44.078;2023-07-28T03:35:36;99071.16;;;23.65;89.75
55757;BME280;41676;44.610;44.078;2023-07-28T03:40:37;99045.28;;;23.49;90.43
55757;BME280;41676;44.610;44.078;2023-07-28T03:45:38;99010.56;;;23.22;90.51
55757;BME280;41676;44.610;44.078;2023-07-28T03:50:39;98997.09;;;23.12;91.15
55757;BME280;41676;44.610;44.078;2023-07-28T03:55:39;99069.25;;;23.66;91.07
55757;BME280;41676;44.610;44.078;2023-07-28T04:00:40;99077.09;;;23.73;90.29
55757;BME280;41676;44.610;44.078;2023-07-28T04:05:41;99078.59;;;23.84;89.58
55757;BME280;41676;44.610;44.078;2023-07-28T04:10:41;99094.91;;;24.08;88.91
55757;BME280;41676;44.610;44.078;2023-07-28T04:15:42;99108.16;;;24.14;87.84
55757;BME280;41676;44.610;44.078;2023-07-28T04:20:43;99105.84;;;24.27;87.32
55757;BME280;41676;44.610;44.078;2023-07-28T04:25:44;99090.06;;;24.29;86.87
55757;BME280;41676;44.610;44.078;2023-07-28T04:30:44;99096.09;;;24.50;86.95
55757;BME280;41676;44.610;44.078;2023-07-28T04:35:45;99040.66;;;24.08;87.39
55757;BME280;41676;44.610;44.078;2023-07-28T04:40:46;99037.63;;;24.14;87.41
55757;BME280;41676;44.610;44.078;2023-07-28T04:45:46;99032.19;;;24.14;87.57
55757;BME280;41676;44.610;44.078;2023-07-28T04:50:47;99054.13;;;24.42;87.97
55757;BME280;41676;44.610;44.078;2023-07-28T04:55:48;99015.94;;;24.33;87.36
55757;BME280;41676;44.610;44.078;2023-07-28T05:00:49;99065.03;;;24.80;87.06
55757;BME280;41676;44.610;44.078;2023-07-28T05:05:50;98982.31;;;24.53;86.96
55757;BME280;41676;44.610;44.078;2023-07-28T05:10:51;99052.91;;;25.29;85.39
55757;BME280;41676;44.610;44.078;2023-07-28T05:15:51;99055.59;;;25.48;84.77
55757;BME280;41676;44.610;44.078;2023-07-28T05:20:52;99064.72;;;25.71;83.82
55757;BME280;41676;44.610;44.078;2023-07-28T05:25:53;99088.19;;;26.00;82.45
55757;BME280;41676;44.610;44.078;2023-07-28T05:30:54;99089.91;;;26.09;81.68
55757;BME280;41676;44.610;44.078;2023-07-28T05:36:04;99112.06;;;26.44;80.34
55757;BME280;41676;44.610;44.078;2023-07-28T05:41:04;99037.69;;;26.21;79.45
55757;BME280;41676;44.610;44.078;2023-07-28T05:46:05;99076.19;;;26.56;79.70
55757;BME280;41676;44.610;44.078;2023-07-28T05:51:06;99089.88;;;26.78;79.16
55757;BME280;41676;44.610;44.078;2023-07-28T05:56:07;99068.88;;;26.93;78.79
55757;BME280;41676;44.610;44.078;2023-07-28T06:01:08;99019.03;;;26.78;77.96
55757;BME280;41676;44.610;44.078;2023-07-28T06:06:08;99058.00;;;27.15;76.50
55757;BME280;41676;44.610;44.078;2023-07-28T06:11:09;99070.50;;;27.16;76.31
55757;BME280;41676;44.610;44.078;2023-07-28T06:16:10;99096.31;;;27.33;75.92
55757;BME280;41676;44.610;44.078;2023-07-28T06:21:11;99038.13;;;27.01;75.81
55757;BME280;41676;44.610;44.078;2023-07-28T06:26:11;99135.31;;;27.56;75.45
55757;BME280;41676;44.610;44.078;2023-07-28T06:31:12;99131.66;;;27.38;75.75
55757;BME280;41676;44.610;44.078;2023-07-28T06:36:13;99119.53;;;27.30;75.25
55757;BME280;41676;44.610;44.078;2023-07-28T06:41:13;99043.66;;;27.09;73.82
55757;BME280;41676;44.610;44.078;2023-07-28T06:46:15;99081.16;;;27.71;73.32
55757;BME280;41676;44.610;44.078;2023-07-28T06:51:15;99082.03;;;27.58;73.30
55757;BME280;41676;44.610;44.078;2023-07-28T06:56:16;99086.88;;;27.61;72.81
55757;BME280;41676;44.610;44.078;2023-07-28T07:01:17;99084.50;;;27.91;73.33
55757;BME280;41676;44.610;44.078;2023-07-28T07:06:18;99066.59;;;28.07;72.61
55757;BME280;41676;44.610;44.078;2023-07-28T07:11:19;99056.84;;;28.23;71.57
55757;BME280;41676;44.610;44.078;2023-07-28T07:16:19;99043.06;;;28.37;70.97
55757;BME280;41676;44.610;44.078;2023-07-28T07:21:20;99067.28;;;28.79;69.45
55757;BME280;41676;44.610;44.078;2023-07-28T07:26:21;99065.84;;;28.73;69.76
55757;BME280;41676;44.610;44.078;2023-07-28T07:31:22;99070.81;;;28.71;69.42
55757;BME280;41676;44.610;44.078;2023-07-28T07:36:22;99081.13;;;28.82;68.67
55757;BME280;41676;44.610;44.078;2023-07-28T07:41:23;99078.88;;;28.76;68.89
55757;BME280;41676;44.610;44.078;2023-07-28T07:46:24;99049.28;;;28.69;68.42
55757;BME280;41676;44.610;44.078;2023-07-28T07:51:25;99104.78;;;29.13;68.28
55757;BME280;41676;44.610;44.078;2023-07-28T07:56:26;99102.72;;;29.10;67.86
55757;BME280;41676;44.610;44.078;2023-07-28T08:01:26;99105.59;;;29.22;67.58
55757;BME280;41676;44.610;44.078;2023-07-28T08:06:27;99027.44;;;29.04;67.16
55757;BME280;41676;44.610;44.078;2023-07-28T08:11:29;99026.34;;;29.05;66.39
55757;BME280;41676;44.610;44.078;2023-07-28T08:16:30;99038.97;;;29.44;66.70
55757;BME280;41676;44.610;44.078;2023-07-28T08:21:30;99081.28;;;30.11;65.35
55757;BME280;41676;44.610;44.078;2023-07-28T08:26:36;99068.69;;;30.28;64.34
55757;BME280;41676;44.610;44.078;2023-07-28T08:31:37;99045.19;;;30.18;63.49
55757;BME280;41676;44.610;44.078;2023-07-28T08:36:38;99063.06;;;30.54;62.70
55757;BME280;41676;44.610;44.078;2023-07-28T08:41:39;98991.97;;;29.98;62.41
55757;BME280;41676;44.610;44.078;2023-07-28T08:46:40;99070.72;;;30.39;62.69
55757;BME280;41676;44.610;44.078;2023-07-28T08:51:41;99079.63;;;30.57;61.98
55757;BME280;41676;44.610;44.078;2023-07-28T08:56:43;99069.69;;;30.74;61.71
55757;BME280;41676;44.610;44.078;2023-07-28T09:01:44;99096.44;;;31.06;61.43
55757;BME280;41676;44.610;44.078;2023-07-28T09:06:48;99096.88;;;31.29;60.45
55757;BME280;41676;44.610;44.078;2023-07-28T09:11:53;99039.94;;;31.26;58.85
55757;BME280;41676;44.610;44.078;2023-07-28T09:16:54;99091.38;;;31.83;58.75
55757;BME280;41676;44.610;44.078;2023-07-28T09:22:00;99103.13;;;32.29;56.36
55757;BME280;41676;44.610;44.078;2023-07-28T09:27:01;99082.41;;;32.32;55.71
55757;BME280;41676;44.610;44.078;2023-07-28T09:32:04;99089.38;;;32.29;55.89
55757;BME280;41676;44.610;44.078;2023-07-28T09:37:08;99037.88;;;32.02;55.32
55757;BME280;41676;44.610;44.078;2023-07-28T09:42:10;99047.72;;;32.52;54.48
55757;BME280;41676;44.610;44.078;2023-07-28T09:47:12;99020.78;;;32.58;53.67
55757;BME280;41676;44.610;44.078;2023-07-28T09:52:14;99086.59;;;33.03;53.95
55757;BME280;41676;44.610;44.078;2023-07-28T09:57:20;99080.88;;;32.84;54.48
55757;BME280;41676;44.610;44.078;2023-07-28T10:02:21;99005.13;;;32.46;54.32
55757;BME280;41676;44.610;44.078;2023-07-28T10:07:24;99054.00;;;33.05;53.46
55757;BME280;41676;44.610;44.078;2023-07-28T10:12:25;99045.41;;;33.07;53.11
55757;BME280;41676;44.610;44.078;2023-07-28T10:17:33;99053.09;;;33.29;51.76
55757;BME280;41676;44.610;44.078;2023-07-28T10:22:44;98998.88;;;33.30;51.01
55757;BME280;41676;44.610;44.078;2023-07-28T10:27:46;99046.47;;;34.22;51.70
55757;BME280;41676;44.610;44.078;2023-07-28T10:32:50;99035.59;;;34.45;49.94
55757;BME280;41676;44.610;44.078;2023-07-28T10:37:53;99003.00;;;34.66;48.56
55757;BME280;41676;44.610;44.078;2023-07-28T10:42:57;99017.88;;;35.20;47.87
55757;BME280;41676;44.610;44.078;2023-07-28T10:47:59;98915.75;;;34.58;46.99
55757;BME280;41676;44.610;44.078;2023-07-28T10:53:00;99011.63;;;35.23;46.81
55757;BME280;41676;44.610;44.078;2023-07-28T10:58:02;99019.75;;;34.96;47.31
55757;BME280;41676;44.610;44.078;2023-07-28T11:03:04;99012.22;;;34.39;47.65
55757;BME280;41676;44.610;44.078;2023-07-28T11:08:05;99015.84;;;34.07;48.41
55757;BME280;41676;44.610;44.078;2023-07-28T11:13:08;99027.28;;;33.78;48.91
55757;BME280;41676;44.610;44.078;2023-07-28T11:18:08;99027.19;;;33.58;49.01
55757;BME280;41676;44.610;44.078;2023-07-28T11:23:13;99029.25;;;33.33;49.02
55757;BME280;41676;44.610;44.078;2023-07-28T11:28:14;99014.56;;;33.29;49.63
55757;BME280;41676;44.610;44.078;2023-07-28T11:33:15;99024.09;;;33.32;49.61
55757;BME280;41676;44.610;44.078;2023-07-28T11:38:16;98958.97;;;32.80;49.23
55757;BME280;41676;44.610;44.078;2023-07-28T11:43:17;99047.22;;;33.15;49.71
55757;BME280;41676;44.610;44.078;2023-07-28T11:48:18;99041.56;;;33.24;49.59
55757;BME280;41676;44.610;44.078;2023-07-28T11:53:19;99034.75;;;33.33;49.60
55757;BME280;41676;44.610;44.078;2023-07-28T11:58:21;99027.53;;;33.29;49.62
55757;BME280;41676;44.610;44.078;2023-07-28T12:03:29;99054.81;;;33.34;49.83
55757;BME280;41676;44.610;44.078;2023-07-28T12:08:37;99052.47;;;33.20;49.61
55757;BME280;41676;44.610;44.078;2023-07-28T12:13:50;99053.44;;;33.12;48.07
55757;BME280;41676;44.610;44.078;2023-07-28T12:18:58;99082.88;;;33.11;47.16
55757;BME280;41676;44.610;44.078;2023-07-28T12:23:59;99102.31;;;33.03;47.21
55757;BME280;41676;44.610;44.078;2023-07-28T12:29:00;99117.53;;;32.76;46.80
55757;BME280;41676;44.610;44.078;2023-07-28T12:34:00;99091.47;;;31.87;47.90
55757;BME280;41676;44.610;44.078;2023-07-28T12:39:01;99119.75;;;31.33;49.09
55757;BME280;41676;44.610;44.078;2023-07-28T12:44:03;99144.66;;;31.07;50.04
55757;BME280;41676;44.610;44.078;2023-07-28T12:49:04;99151.28;;;30.77;50.12
55757;BME280;41676;44.610;44.078;2023-07-28T12:54:07;99177.88;;;30.46;50.70
55757;BME280;41676;44.610;44.078;2023-07-28T12:59:08;99168.78;;;30.16;51.00
55757;BME280;41676;44.610;44.078;2023-07-28T13:04:08;99191.38;;;29.96;51.15
55757;BME280;41676;44.610;44.078;2023-07-28T13:09:09;99231.16;;;29.67;52.57
55757;BME280;41676;44.610;44.078;2023-07-28T13:14:10;99200.94;;;28.98;54.39
55757;BME280;41676;44.610;44.078;2023-07-28T13:19:11;99224.34;;;28.73;54.74
55757;BME280;41676;44.610;44.078;2023-07-28T13:24:12;99236.66;;;28.39;56.11
55757;BME280;41676;44.610;44.078;2023-07-28T13:29:13;99208.16;;;27.77;57.68
55757;BME280;41676;44.610;44.078;2023-07-28T13:34:13;99255.41;;;27.64;58.88
55757;BME280;41676;44.610;44.078;2023-07-28T13:39:14;99256.59;;;27.22;59.71
55757;BME280;41676;44.610;44.078;2023-07-28T13:44:15;99291.50;;;27.06;60.36
55757;BME280;41676;44.610;44.078;2023-07-28T13:49:16;99276.53;;;26.62;62.02
55757;BME280;41676;44.610;44.078;2023-07-28T13:54:17;99344.34;;;26.45;65.09
55757;BME280;41676;44.610;44.078;2023-07-28T13:59:17;99282.56;;;25.50;66.81
55757;BME280;41676;44.610;44.078;2023-07-28T14:04:18;99330.28;;;25.19;69.13
55757;BME280;41676;44.610;44.078;2023-07-28T14:09:19;99374.25;;;24.92;71.40
55757;BME280;41676;44.610;44.078;2023-07-28T14:14:20;99476.25;;;24.79;74.88
55757;BME280;41676;44.610;44.078;2023-07-28T14:19:21;99503.25;;;24.05;77.91
55757;BME280;41676;44.610;44.078;2023-07-28T14:24:22;99501.19;;;22.90;82.72
55757;BME280;41676;44.610;44.078;2023-07-28T14:29:23;99578.06;;;22.68;86.66
55757;BME280;41676;44.610;44.078;2023-07-28T14:34:23;99551.38;;;22.24;89.67
55757;BME280;41676;44.610;44.078;2023-07-28T14:49:44;99450.88;;;20.73;100.00
55757;BME280;41676;44.610;44.078;2023-07-28T14:54:45;99465.56;;;20.82;100.00
55757;BME280;41676;44.610;44.078;2023-07-28T14:59:46;99466.97;;;20.63;100.00
55757;BME280;41676;44.610;44.078;2023-07-28T15:04:47;99481.78;;;20.60;100.00
55757;BME280;41676;44.610;44.078;2023-07-28T15:09:48;99499.38;;;20.63;100.00
55757;BME280;41676;44.610;44.078;2023-07-28T15:14:49;99497.25;;;20.65;100.00
55757;BME280;41676;44.610;44.078;2023-07-28T15:19:50;99479.31;;;20.54;100.00
55757;BME280;41676;44.610;44.078;2023-07-28T15:24:51;99422.25;;;20.18;100.00
55757;BME280;41676;44.610;44.078;2023-07-28T15:29:52;99411.63;;;20.06;100.00
55757;BME280;41676;44.610;44.078;2023-07-28T15:34:52;99407.38;;;19.88;100.00
55757;BME280;41676;44.610;44.078;2023-07-28T15:39:53;99499.75;;;20.49;100.00
55757;BME280;41676;44.610;44.078;2023-07-28T15:44:54;99459.00;;;20.24;100.00
55757;BME280;41676;44.610;44.078;2023-07-28T15:49:55;99430.63;;;20.16;100.00
55757;BME280;41676;44.610;44.078;2023-07-28T15:54:55;99482.97;;;20.69;100.00
55757;BME280;41676;44.610;44.078;2023-07-28T15:59:56;99446.56;;;20.72;100.00
55757;BME280;41676;44.610;44.078;2023-07-28T16:04:57;99422.03;;;20.73;100.00
55757;BME280;41676;44.610;44.078;2023-07-28T16:09:58;99433.34;;;20.70;100.00
55757;BME280;41676;44.610;44.078;2023-07-28T16:14:59;99376.63;;;20.38;100.00
55757;BME280;41676;44.610;44.078;2023-07-28T16:20:00;99366.34;;;20.35;100.00
55757;BME280;41676;44.610;44.078;2023-07-28T16:25:01;99396.25;;;20.61;100.00
55757;BME280;41676;44.610;44.078;2023-07-28T16:30:05;99417.50;;;20.79;100.00
55757;BME280;41676;44.610;44.078;2023-07-28T16:35:06;99423.19;;;20.28;100.00
55757;BME280;41676;44.610;44.078;2023-07-28T16:40:07;99453.22;;;20.37;100.00
55757;BME280;41676;44.610;44.078;2023-07-28T16:45:08;99537.25;;;20.73;100.00
55757;BME280;41676;44.610;44.078;2023-07-28T16:50:09;99565.97;;;20.84;100.00
55757;BME280;41676;44.610;44.078;2023-07-28T16:55:10;99567.63;;;20.85;100.00
55757;BME280;41676;44.610;44.078;2023-07-28T17:00:11;99493.63;;;20.32;100.00
55757;BME280;41676;44.610;44.078;2023-07-28T17:05:12;99546.19;;;20.73;100.00
55757;BME280;41676;44.610;44.078;2023-07-28T17:10:13;99597.50;;;21.06;100.00
55757;BME280;41676;44.610;44.078;2023-07-28T17:15:14;99607.25;;;21.07;100.00
55757;BME280;41676;44.610;44.078;2023-07-28T17:20:15;99612.44;;;21.13;100.00
55757;BME280;41676;44.610;44.078;2023-07-28T17:25:16;99546.41;;;20.72;99.16
55757;BME280;41676;44.610;44.078;2023-07-28T17:30:17;99617.25;;;21.06;98.52
55757;BME280;41676;44.610;44.078;2023-07-28T17:35:17;99526.84;;;20.60;97.15
55757;BME280;41676;44.610;44.078;2023-07-28T17:40:18;99649.31;;;21.30;96.75
55757;BME280;41676;44.610;44.078;2023-07-28T17:45:19;99547.44;;;20.66;96.56
55757;BME280;41676;44.610;44.078;2023-07-28T17:50:20;99613.03;;;20.93;96.52
55757;BME280;41676;44.610;44.078;2023-07-28T17:55:21;99640.19;;;21.09;95.65
55757;BME280;41676;44.610;44.078;2023-07-28T18:00:22;99587.06;;;20.87;93.43
55757;BME280;41676;44.610;44.078;2023-07-28T18:05:23;99580.28;;;20.85;91.94
55757;BME280;41676;44.610;44.078;2023-07-28T18:10:24;99691.38;;;21.42;90.90
55757;BME280;41676;44.610;44.078;2023-07-28T18:15:25;99698.91;;;21.40;90.05
55757;BME280;41676;44.610;44.078;2023-07-28T18:20:27;99612.22;;;20.93;88.99
55757;BME280;41676;44.610;44.078;2023-07-28T18:25:27;99607.41;;;20.95;88.64
55757;BME280;41676;44.610;44.078;2023-07-28T18:30:30;99702.19;;;21.42;89.09
55757;BME280;41676;44.610;44.078;2023-07-28T18:35:30;99631.19;;;20.98;88.71
55757;BME280;41676;44.610;44.078;2023-07-28T18:40:31;99701.53;;;21.35;88.19
55757;BME280;41676;44.610;44.078;2023-07-28T18:45:32;99729.88;;;21.55;87.56
55757;BME280;41676;44.610;44.078;2023-07-28T18:50:33;99704.91;;;21.48;86.93
55757;BME280;41676;44.610;44.078;2023-07-28T18:55:34;99714.88;;;21.42;87.26
55757;BME280;41676;44.610;44.078;2023-07-28T19:00:34;99698.69;;;21.47;86.67
55757;BME280;41676;44.610;44.078;2023-07-28T19:05:35;99639.22;;;21.15;85.69
55757;BME280;41676;44.610;44.078;2023-07-28T19:10:36;99720.06;;;21.49;84.36
55757;BME280;41676;44.610;44.078;2023-07-28T19:15:37;99705.69;;;21.43;84.71
55757;BME280;41676;44.610;44.078;2023-07-28T19:20:38;99719.81;;;21.50;85.71
55757;BME280;41676;44.610;44.078;2023-07-28T19:25:38;99596.22;;;20.59;86.65
55757;BME280;41676;44.610;44.078;2023-07-28T19:30:40;99706.09;;;21.35;87.33
55757;BME280;41676;44.610;44.078;2023-07-28T19:35:41;99651.47;;;21.01;88.03
55757;BME280;41676;44.610;44.078;2023-07-28T19:40:46;99708.34;;;21.16;88.88
